Nestor I — D5PJ6 — position and weather

sailwx.info

Track history (hours):
 
Tides and Currents Weather Stations Pressure Air Temp Water Temp Dewpoint Dewpoint Depression Visibility Wind Speed Wind Dir Waves Ship Positions

Nestor I

Last reported at 2018-Feb-05 16:06 UTC. Time now 2018-Feb-21 11:43 UTC.
Position N 09°11' W 079°52'.
Warning: this ship's position is 15 days out of date.

Length 180 m; draft 10 m.

Type: Cargo ship. MMSI: 636018365.

Date/timePositionNaut miles runAvg speedWind from/ knotsBaromVisibWave heightAir tempDewpointWater temp
2018-Feb-05 16:06N 09°11' W 079°52'111.2
2018-Feb-05 16:00N 09°11' W 079°53'4 7.9
2018-Feb-05 15:30N 09°14' W 079°56'0 0.3
2018-Feb-05 14:46N 09°14' W 079°56'0 0.0
2018-Feb-05 13:25N 09°14' W 079°56'0 0.0
2018-Feb-05 12:49N 09°14' W 079°56'0 0.1
2018-Feb-05 12:19N 09°14' W 079°56'0 0.0
2018-Feb-05 09:11N 09°14' W 079°56'0 1.1
2018-Feb-05 08:58N 09°14' W 079°56'2 5.2
2018-Feb-05 08:30N 09°16' W 079°55'0 0.8
2018-Feb-05 08:00N 09°16' W 079°55'0 0.4
2018-Feb-05 07:30N 09°17' W 079°55'1 1.6
2018-Feb-05 07:00N 09°17' W 079°55'2 4.1
2018-Feb-05 06:30N 09°19' W 079°55'7 7.3
2018-Feb-05 05:30N 09°27' W 079°56'1 2.4
2018-Feb-05 05:00N 09°27' W 079°57'0 0.1
2018-Feb-05 04:30N 09°27' W 079°57'0 0.0
2018-Feb-05 04:00N 09°27' W 079°57'0 0.0
2018-Feb-05 03:30N 09°27' W 079°57'0 0.0
2018-Feb-05 03:00N 09°27' W 079°57'0 0.0
2018-Feb-05 02:30N 09°27' W 079°57'  
Track history (hours):
 
Tides and Currents Weather Stations Pressure Air Temp Water Temp Dewpoint Dewpoint Depression Visibility Wind Speed Wind Dir Waves Ship Positions

Nestor I

Last reported at 2018-Feb-05 16:06 UTC. Time now 2018-Feb-21 11:43 UTC.
Position N 09°11' W 079°52'.
Warning: this ship's position is 15 days out of date.

Length 180 m; draft 10 m.

Type: Cargo ship. MMSI: 636018365.

Date/timePositionNaut miles runAvg speedWind from/ knotsBaromVisibWave heightAir tempDewpointWater temp
2018-Feb-05 16:06N 09°11' W 079°52'111.2
2018-Feb-05 16:00N 09°11' W 079°53'4 7.9
2018-Feb-05 15:30N 09°14' W 079°56'0 0.3
2018-Feb-05 14:46N 09°14' W 079°56'0 0.0
2018-Feb-05 13:25N 09°14' W 079°56'0 0.0
2018-Feb-05 12:49N 09°14' W 079°56'0 0.1
2018-Feb-05 12:19N 09°14' W 079°56'0 0.0
2018-Feb-05 09:11N 09°14' W 079°56'0 1.1
2018-Feb-05 08:58N 09°14' W 079°56'2 5.2
2018-Feb-05 08:30N 09°16' W 079°55'0 0.8
2018-Feb-05 08:00N 09°16' W 079°55'0 0.4
2018-Feb-05 07:30N 09°17' W 079°55'1 1.6
2018-Feb-05 07:00N 09°17' W 079°55'2 4.1
2018-Feb-05 06:30N 09°19' W 079°55'7 7.3
2018-Feb-05 05:30N 09°27' W 079°56'1 2.4
2018-Feb-05 05:00N 09°27' W 079°57'0 0.1
2018-Feb-05 04:30N 09°27' W 079°57'0 0.0
2018-Feb-05 04:00N 09°27' W 079°57'0 0.0
2018-Feb-05 03:30N 09°27' W 079°57'0 0.0
2018-Feb-05 03:00N 09°27' W 079°57'0 0.0
2018-Feb-05 02:30N 09°27' W 079°57'  

Dump ship's entire track history